Time;durP1;ratioP1;P1;durP2;ratioP2;P2;SDS_P1;SDS_P2;PMS_P1;PMS_P2;Temp;Humidity;BMP_temperature;BMP_pressure;BME280_temperature;BME280_humidity;BME280_pressure;Samples;Min_cycle;Max_cycle;Signal;HPM_P1;HPM_P2
2023/03/29 00:02:06;;;;;;;;;;;28.50;32.20;;;;;;5080846;28;20362;-61
2023/03/29 00:04:32;;;;;;;;;;;27.90;33.90;;;;;;5087584;28;19923;-60
2023/03/29 00:07:03;;;;;;;;;;;27.70;32.70;;;;;;5091560;28;19912;-60
2023/03/29 00:09:30;;;;;;;;;;;28.20;33.80;;;;;;5088102;28;20456;-59
2023/03/29 00:11:56;;;;;;;;;;;28.00;33.70;;;;;;5077243;28;20449;-60
2023/03/29 00:14:23;;;;;;;;;;;29.50;34.10;;;;;;5088467;28;19920;-59
2023/03/29 00:16:49;;;;;;;;;;;27.60;33.80;;;;;;5089836;28;19912;-60
2023/03/29 00:19:15;;;;;;;;;;;27.30;33.30;;;;;;5092778;28;19928;-64
2023/03/29 00:21:41;;;;;;;;;;;27.40;33.10;;;;;;5086610;28;19912;-61
2023/03/29 00:24:07;;;;;;;;;;;27.50;32.40;;;;;;5092209;28;20375;-59
2023/03/29 00:26:33;;;;;;;;;;;27.30;34.70;;;;;;5089526;28;19920;-60
2023/03/29 00:28:59;;;;;;;;;;;27.40;34.40;;;;;;5086451;28;19912;-60
2023/03/29 00:31:26;;;;;;;;;;;27.70;34.60;;;;;;5089757;28;19913;-61
2023/03/29 00:33:52;;;;;;;;;;;27.20;34.00;;;;;;5089329;28;19927;-62
2023/03/29 00:36:18;;;;;;;;;;;27.00;34.20;;;;;;5084307;28;20284;-61
2023/03/29 00:38:44;;;;;;;;;;;26.80;34.40;;;;;;5081854;28;19927;-66
2023/03/29 00:41:10;;;;;;;;;;;27.50;34.00;;;;;;5091207;28;19977;-65
2023/03/29 00:43:55;;;;;;;;;;;26.80;36.20;;;;;;5090511;28;20284;-65
2023/03/29 00:46:21;;;;;;;;;;;26.80;32.90;;;;;;5072443;28;19912;-65
2023/03/29 00:48:48;;;;;;;;;;;26.70;35.90;;;;;;5091433;28;19948;-64
2023/03/29 00:51:15;;;;;;;;;;;26.60;36.00;;;;;;5090542;28;20295;-65
2023/03/29 00:53:44;;;;;;;;;;;26.60;35.50;;;;;;5092296;28;19981;-64
2023/03/29 00:56:23;;;;;;;;;;;26.80;34.70;;;;;;5084578;28;20279;-64
2023/03/29 00:58:50;;;;;;;;;;;26.20;33.90;;;;;;5089033;28;19918;-65
2023/03/29 01:01:20;;;;;;;;;;;26.40;36.60;;;;;;5086479;28;20283;-65
2023/03/29 01:03:49;;;;;;;;;;;26.40;37.00;;;;;;5082570;28;19912;-63
2023/03/29 01:06:16;;;;;;;;;;;26.30;37.10;;;;;;5089772;28;19912;-64
2023/03/29 01:08:51;;;;;;;;;;;26.10;37.40;;;;;;5091239;28;20367;-65
2023/03/29 01:11:21;;;;;;;;;;;25.60;34.10;;;;;;5086669;28;19919;-62
2023/03/29 01:13:54;;;;;;;;;;;26.00;37.40;;;;;;5091439;28;20003;-64
2023/03/29 01:16:20;;;;;;;;;;;25.80;37.00;;;;;;5084237;28;19912;-64
2023/03/29 01:18:47;;;;;;;;;;;26.10;37.10;;;;;;5084900;28;19920;-63
2023/03/29 01:21:29;;;;;;;;;;;25.40;39.70;;;;;;5087813;28;19922;-64
2023/03/29 01:24:08;;;;;;;;;;;25.20;36.30;;;;;;5083675;28;19920;-64
2023/03/29 01:26:40;;;;;;;;;;;24.80;39.60;;;;;;5084366;28;20376;-63
2023/03/29 01:29:12;;;;;;;;;;;25.10;36.60;;;;;;5087586;28;19917;-64
2023/03/29 01:31:43;;;;;;;;;;;24.90;39.30;;;;;;5091093;28;19915;-63
2023/03/29 01:34:11;;;;;;;;;;;24.80;37.60;;;;;;5086013;28;19919;-64
2023/03/29 01:36:41;;;;;;;;;;;24.70;41.40;;;;;;5089314;28;20000;-63
2023/03/29 01:39:07;;;;;;;;;;;24.50;41.70;;;;;;5067598;28;19919;-63
2023/03/29 01:41:51;;;;;;;;;;;25.20;42.20;;;;;;5088842;28;19912;-64
2023/03/29 01:44:20;;;;;;;;;;;24.40;39.80;;;;;;5085823;28;20287;-63
2023/03/29 01:46:47;;;;;;;;;;;24.80;42.80;;;;;;5081474;28;19912;-63
2023/03/29 01:49:19;;;;;;;;;;;25.00;44.90;;;;;;5090118;28;20368;-64
2023/03/29 01:52:40;;;;;;;;;;;24.20;41.70;;;;;;5090793;28;19912;-64
2023/03/29 01:55:08;;;;;;;;;;;24.40;41.10;;;;;;5083681;28;19917;-64
2023/03/29 01:57:36;;;;;;;;;;;23.90;42.90;;;;;;5088090;28;19959;-64
2023/03/29 02:00:07;;;;;;;;;;;24.00;43.40;;;;;;5090039;28;19926;-63
2023/03/29 02:02:33;;;;;;;;;;;23.80;42.40;;;;;;5085094;28;19923;-64
2023/03/29 02:05:00;;;;;;;;;;;23.50;41.30;;;;;;5088693;28;19951;-64
2023/03/29 02:07:29;;;;;;;;;;;23.50;40.10;;;;;;5090699;28;19912;-63
2023/03/29 02:09:57;;;;;;;;;;;23.40;44.70;;;;;;5083514;28;20365;-63
2023/03/29 02:12:23;;;;;;;;;;;23.30;44.00;;;;;;5083954;28;19987;-64
2023/03/29 02:14:49;;;;;;;;;;;23.60;45.60;;;;;;5084513;28;19920;-65
2023/03/29 02:17:25;;;;;;;;;;;23.20;42.10;;;;;;5088226;28;19912;-63
2023/03/29 02:19:55;;;;;;;;;;;23.20;39.90;;;;;;5089285;28;20367;-64
2023/03/29 02:22:23;;;;;;;;;;;23.20;42.20;;;;;;5089379;28;19912;-64
2023/03/29 02:24:51;;;;;;;;;;;23.20;40.00;;;;;;5091509;28;19919;-64
2023/03/29 02:27:17;;;;;;;;;;;23.20;40.80;;;;;;5089954;28;19915;-63
2023/03/29 02:29:45;;;;;;;;;;;23.30;44.10;;;;;;5084265;28;19916;-62
2023/03/29 02:32:14;;;;;;;;;;;23.40;44.20;;;;;;5083987;28;19912;-65
2023/03/29 02:34:55;;;;;;;;;;;23.00;39.70;;;;;;5080378;28;20484;-65
2023/03/29 02:37:23;;;;;;;;;;;23.10;42.30;;;;;;5084554;28;19948;-66
2023/03/29 02:39:50;;;;;;;;;;;22.90;45.10;;;;;;5083930;28;20672;-65
2023/03/29 02:42:19;;;;;;;;;;;22.90;41.70;;;;;;5083932;28;19912;-67
2023/03/29 02:44:48;;;;;;;;;;;22.80;46.80;;;;;;5080726;28;19912;-65
2023/03/29 02:47:16;;;;;;;;;;;22.80;47.10;;;;;;5080264;28;19919;-64
2023/03/29 02:49:42;;;;;;;;;;;22.70;47.30;;;;;;5078367;28;20004;-65
2023/03/29 02:52:11;;;;;;;;;;;23.20;47.00;;;;;;5079250;28;19920;-68
2023/03/29 02:54:42;;;;;;;;;;;22.70;44.00;;;;;;5061616;28;19947;-67
2023/03/29 02:57:09;;;;;;;;;;;22.80;46.30;;;;;;5081472;28;19912;-61
2023/03/29 02:59:37;;;;;;;;;;;23.20;44.90;;;;;;5080935;28;19955;-66
2023/03/29 03:02:04;;;;;;;;;;;22.60;43.10;;;;;;5070712;28;19924;-65
2023/03/29 03:04:32;;;;;;;;;;;22.70;47.40;;;;;;5081558;28;20014;-67
2023/03/29 03:06:58;;;;;;;;;;;23.40;47.20;;;;;;5086234;28;19912;-68
2023/03/29 03:09:24;;;;;;;;;;;22.70;44.80;;;;;;5089391;28;20007;-66
2023/03/29 03:11:50;;;;;;;;;;;23.20;45.60;;;;;;5088685;28;19966;-66
2023/03/29 03:14:17;;;;;;;;;;;22.50;47.80;;;;;;5087627;28;19924;-66
2023/03/29 03:16:43;;;;;;;;;;;22.30;43.50;;;;;;5085985;28;19913;-66
2023/03/29 03:19:09;;;;;;;;;;;22.40;47.70;;;;;;5078574;28;19912;-66
2023/03/29 03:21:36;;;;;;;;;;;22.40;44.10;;;;;;5087406;28;19911;-65
2023/03/29 03:24:03;;;;;;;;;;;22.30;44.90;;;;;;5086298;28;19916;-65
2023/03/29 03:26:29;;;;;;;;;;;22.20;45.50;;;;;;5080783;28;19912;-66
2023/03/29 03:28:55;;;;;;;;;;;22.20;46.10;;;;;;5086607;28;20282;-66
2023/03/29 03:31:21;;;;;;;;;;;22.80;43.40;;;;;;5089287;28;20010;-69
2023/03/29 03:33:47;;;;;;;;;;;22.10;46.90;;;;;;5083250;28;20359;-68
2023/03/29 03:36:13;;;;;;;;;;;21.90;45.50;;;;;;5081495;28;19920;-66
2023/03/29 03:38:40;;;;;;;;;;;22.00;45.40;;;;;;5086469;28;19919;-67
2023/03/29 03:41:06;;;;;;;;;;;21.90;44.80;;;;;;5085703;28;19920;-67
2023/03/29 03:43:32;;;;;;;;;;;22.30;50.40;;;;;;5087705;28;19954;-65
2023/03/29 03:45:58;;;;;;;;;;;21.90;45.70;;;;;;5085982;28;19912;-66
2023/03/29 03:48:25;;;;;;;;;;;21.90;46.10;;;;;;5087520;28;19912;-69
2023/03/29 03:50:52;;;;;;;;;;;21.90;48.70;;;;;;5086124;28;19916;-65
2023/03/29 03:53:18;;;;;;;;;;;22.00;49.30;;;;;;5088255;28;19912;-65
2023/03/29 03:55:48;;;;;;;;;;;21.60;48.80;;;;;;5086031;28;20035;-66
2023/03/29 03:58:14;;;;;;;;;;;22.00;45.90;;;;;;5078121;28;20291;-66
2023/03/29 04:00:41;;;;;;;;;;;21.50;48.90;;;;;;5076905;28;20010;-66
2023/03/29 04:03:07;;;;;;;;;;;21.70;50.30;;;;;;5077572;28;20280;-67
2023/03/29 04:05:38;;;;;;;;;;;22.00;49.00;;;;;;5084909;28;19966;-66
2023/03/29 04:08:05;;;;;;;;;;;21.50;48.10;;;;;;5089219;28;19924;-66
2023/03/29 04:10:32;;;;;;;;;;;21.50;47.00;;;;;;5083262;28;19912;-66
2023/03/29 04:13:01;;;;;;;;;;;21.50;48.70;;;;;;5088128;28;19912;-61
2023/03/29 04:15:31;;;;;;;;;;;22.10;48.30;;;;;;5088728;28;19916;-65
2023/03/29 04:17:58;;;;;;;;;;;21.40;49.60;;;;;;5087706;28;19913;-67
2023/03/29 04:20:24;;;;;;;;;;;21.30;51.30;;;;;;5088259;28;19912;-67
2023/03/29 04:22:50;;;;;;;;;;;21.90;52.10;;;;;;5081019;28;19934;-64
2023/03/29 04:25:17;;;;;;;;;;;21.00;50.60;;;;;;5087244;28;19952;-65
2023/03/29 04:27:43;;;;;;;;;;;20.90;49.10;;;;;;5086347;28;20367;-67
2023/03/29 04:30:10;;;;;;;;;;;21.30;50.00;;;;;;5088827;28;19912;-65
2023/03/29 04:32:36;;;;;;;;;;;20.80;46.50;;;;;;5084711;28;20455;-65
2023/03/29 04:35:03;;;;;;;;;;;20.70;48.10;;;;;;5074403;28;20018;-66
2023/03/29 04:37:30;;;;;;;;;;;21.30;49.60;;;;;;5083396;28;19919;-65
2023/03/29 04:39:59;;;;;;;;;;;20.20;52.50;;;;;;5069467;28;19913;-65
2023/03/29 04:42:26;;;;;;;;;;;20.30;51.80;;;;;;5091287;28;19912;-65
2023/03/29 04:44:53;;;;;;;;;;;20.10;52.40;;;;;;5091620;28;19912;-67
2023/03/29 04:47:22;;;;;;;;;;;20.20;52.70;;;;;;5073200;28;19916;-66
2023/03/29 04:49:48;;;;;;;;;;;20.00;54.00;;;;;;5084728;28;19912;-65
2023/03/29 04:52:14;;;;;;;;;;;20.20;54.00;;;;;;5087601;28;19997;-70
2023/03/29 04:54:40;;;;;;;;;;;20.00;55.40;;;;;;5073647;28;19939;-65
2023/03/29 04:57:07;;;;;;;;;;;20.10;52.20;;;;;;5083305;28;19999;-66
2023/03/29 04:59:33;;;;;;;;;;;19.90;51.90;;;;;;5086727;28;20398;-65
2023/03/29 05:02:01;;;;;;;;;;;19.90;52.10;;;;;;5067172;28;20049;-65
2023/03/29 05:04:28;;;;;;;;;;;19.70;52.20;;;;;;5087313;28;19965;-66
2023/03/29 05:06:54;;;;;;;;;;;19.80;49.60;;;;;;5093573;28;19912;-67
2023/03/29 05:09:21;;;;;;;;;;;19.80;51.90;;;;;;5090705;28;19923;-65
2023/03/29 05:11:47;;;;;;;;;;;19.60;52.00;;;;;;5090893;28;20368;-67
2023/03/29 05:14:13;;;;;;;;;;;20.00;54.20;;;;;;5089254;28;20567;-64
2023/03/29 05:16:39;;;;;;;;;;;19.70;50.60;;;;;;5089985;28;20030;-66
2023/03/29 05:19:05;;;;;;;;;;;19.60;55.50;;;;;;5090754;28;19975;-65
2023/03/29 05:21:32;;;;;;;;;;;19.50;54.10;;;;;;5089677;28;20394;-65
2023/03/29 05:23:58;;;;;;;;;;;19.30;59.90;;;;;;5090560;28;19943;-65
2023/03/29 05:26:24;;;;;;;;;;;19.20;51.40;;;;;;5073141;28;19919;-66
2023/03/29 05:28:50;;;;;;;;;;;19.30;52.00;;;;;;5088316;28;19920;-64
2023/03/29 05:31:16;;;;;;;;;;;19.10;53.10;;;;;;5089751;28;19920;-63
2023/03/29 05:33:43;;;;;;;;;;;19.60;53.50;;;;;;5087017;28;19927;-67
2023/03/29 05:36:12;;;;;;;;;;;19.10;54.50;;;;;;5089647;28;20283;-64
2023/03/29 05:38:38;;;;;;;;;;;18.80;55.80;;;;;;5086905;28;19964;-67
2023/03/29 05:41:05;;;;;;;;;;;18.80;54.50;;;;;;5090927;28;20030;-65
2023/03/29 05:43:32;;;;;;;;;;;19.30;56.80;;;;;;5085153;28;20332;-59
2023/03/29 05:45:58;;;;;;;;;;;18.70;55.80;;;;;;5085665;28;19935;-66
2023/03/29 05:48:24;;;;;;;;;;;18.90;57.00;;;;;;5086654;28;19948;-67
2023/03/29 05:50:52;;;;;;;;;;;18.60;56.40;;;;;;5080271;28;20017;-64
2023/03/29 05:53:19;;;;;;;;;;;18.50;56.20;;;;;;5083416;28;19913;-65
2023/03/29 05:55:45;;;;;;;;;;;18.40;56.70;;;;;;5088723;28;19919;-66
2023/03/29 05:58:11;;;;;;;;;;;18.80;58.00;;;;;;5085903;28;20014;-64
2023/03/29 06:00:38;;;;;;;;;;;18.30;58.20;;;;;;5081887;28;19920;-66
2023/03/29 06:03:06;;;;;;;;;;;18.40;59.70;;;;;;5084062;28;20459;-62
2023/03/29 06:05:33;;;;;;;;;;;18.50;59.20;;;;;;5082893;28;19920;-64
2023/03/29 06:08:00;;;;;;;;;;;18.30;58.20;;;;;;5082326;28;19912;-63
2023/03/29 06:10:26;;;;;;;;;;;18.20;59.50;;;;;;5087799;28;20387;-64
2023/03/29 06:12:52;;;;;;;;;;;18.10;59.90;;;;;;5089620;28;20368;-62
2023/03/29 06:15:18;;;;;;;;;;;17.80;63.30;;;;;;5086964;28;20295;-64
2023/03/29 06:17:45;;;;;;;;;;;18.00;60.40;;;;;;5079897;28;19943;-64
2023/03/29 06:20:12;;;;;;;;;;;17.90;59.80;;;;;;5079907;28;19951;-64
2023/03/29 06:22:38;;;;;;;;;;;18.10;62.10;;;;;;5080011;28;19912;-64
2023/03/29 06:25:05;;;;;;;;;;;17.90;62.40;;;;;;5076264;28;19973;-64
2023/03/29 06:27:31;;;;;;;;;;;17.70;60.30;;;;;;5078474;28;19930;-62
2023/03/29 06:29:58;;;;;;;;;;;17.70;61.70;;;;;;5081811;28;20021;-64
2023/03/29 06:32:25;;;;;;;;;;;17.70;63.90;;;;;;5076625;28;19965;-65
2023/03/29 06:34:51;;;;;;;;;;;17.60;64.70;;;;;;5078280;28;19957;-63
2023/03/29 06:37:17;;;;;;;;;;;17.80;58.50;;;;;;5081139;28;19968;-63
2023/03/29 06:39:43;;;;;;;;;;;18.00;66.10;;;;;;5079964;28;19938;-63
2023/03/29 06:42:09;;;;;;;;;;;17.40;66.10;;;;;;5079660;28;19972;-63
2023/03/29 06:44:36;;;;;;;;;;;17.60;65.20;;;;;;5076418;28;19919;-63
2023/03/29 06:47:03;;;;;;;;;;;17.90;65.20;;;;;;5081433;28;20354;-63
2023/03/29 06:49:29;;;;;;;;;;;17.40;67.30;;;;;;5078475;28;19928;-63
2023/03/29 06:51:55;;;;;;;;;;;17.70;64.60;;;;;;5076970;28;19943;-60
2023/03/29 06:54:22;;;;;;;;;;;17.60;64.20;;;;;;5076641;28;20413;-63
2023/03/29 06:56:48;;;;;;;;;;;17.60;63.20;;;;;;5080362;28;19934;-64
2023/03/29 06:59:14;;;;;;;;;;;17.90;64.90;;;;;;5075278;28;19932;-64
2023/03/29 07:01:40;;;;;;;;;;;17.70;66.00;;;;;;5079057;28;19955;-64
2023/03/29 07:04:08;;;;;;;;;;;17.40;64.50;;;;;;5075571;28;20054;-64
2023/03/29 07:06:37;;;;;;;;;;;17.60;64.80;;;;;;5077947;28;19947;-63
2023/03/29 07:09:05;;;;;;;;;;;17.30;65.30;;;;;;5076575;28;19916;-64
2023/03/29 07:11:32;;;;;;;;;;;17.50;65.00;;;;;;5075712;28;19929;-64
2023/03/29 07:13:59;;;;;;;;;;;17.50;65.60;;;;;;5079543;28;20043;-63
2023/03/29 07:16:26;;;;;;;;;;;17.40;66.20;;;;;;5079354;28;20026;-63
2023/03/29 07:18:52;;;;;;;;;;;17.80;64.50;;;;;;5079033;28;19962;-64
2023/03/29 07:21:19;;;;;;;;;;;17.40;63.70;;;;;;5082300;28;19923;-63
2023/03/29 07:23:45;;;;;;;;;;;17.40;63.80;;;;;;5079131;28;20395;-64
2023/03/29 07:26:11;;;;;;;;;;;17.70;62.80;;;;;;5078345;28;20368;-64
2023/03/29 07:28:38;;;;;;;;;;;17.30;64.30;;;;;;5079774;28;19946;-63
2023/03/29 07:31:05;;;;;;;;;;;20.30;65.60;;;;;;5080398;28;20342;-62
2023/03/29 07:33:33;;;;;;;;;;;17.40;63.60;;;;;;5077062;28;19953;-57
2023/03/29 07:35:59;;;;;;;;;;;17.80;63.90;;;;;;5080081;28;19912;-60
2023/03/29 07:38:25;;;;;;;;;;;17.70;64.50;;;;;;5079902;28;19923;-60
2023/03/29 07:40:53;;;;;;;;;;;17.90;63.30;;;;;;5080106;28;19927;-60
2023/03/29 07:43:22;;;;;;;;;;;17.80;63.40;;;;;;5080205;28;20338;-60
2023/03/29 07:45:50;;;;;;;;;;;17.80;63.10;;;;;;5078486;28;19912;-60
2023/03/29 07:48:16;;;;;;;;;;;17.90;64.20;;;;;;5076905;28;20394;-60
2023/03/29 07:50:43;;;;;;;;;;;17.90;63.50;;;;;;5075842;28;20904;-59
2023/03/29 07:53:09;;;;;;;;;;;17.80;64.50;;;;;;5077997;28;19965;-61
2023/03/29 07:55:35;;;;;;;;;;;17.70;63.70;;;;;;5079469;28;20352;-61
2023/03/29 07:58:03;;;;;;;;;;;17.80;56.40;;;;;;5077625;28;20044;-58
2023/03/29 08:00:29;;;;;;;;;;;17.70;52.90;;;;;;5078166;28;19972;-63
2023/03/29 08:02:56;;;;;;;;;;;17.70;52.50;;;;;;5078953;28;19990;-60
2023/03/29 08:05:22;;;;;;;;;;;17.60;53.80;;;;;;5075785;28;20361;-59
2023/03/29 08:07:48;;;;;;;;;;;17.50;53.90;;;;;;5078344;28;20341;-59
2023/03/29 08:10:15;;;;;;;;;;;17.50;53.30;;;;;;5075601;28;19952;-59
2023/03/29 08:12:41;;;;;;;;;;;17.50;55.40;;;;;;5080410;28;19936;-59
2023/03/29 08:15:08;;;;;;;;;;;17.50;54.40;;;;;;5080012;28;20006;-60
2023/03/29 08:17:35;;;;;;;;;;;17.40;53.10;;;;;;5081152;28;20009;-60
2023/03/29 08:20:01;;;;;;;;;;;17.30;53.90;;;;;;5082086;28;19973;-58
2023/03/29 08:22:27;;;;;;;;;;;17.30;52.20;;;;;;5082108;28;19960;-59
2023/03/29 08:24:54;;;;;;;;;;;17.20;53.70;;;;;;5080262;28;19945;-59
2023/03/29 08:27:20;;;;;;;;;;;17.10;54.60;;;;;;5081645;28;20392;-60
2023/03/29 08:29:46;;;;;;;;;;;17.00;54.20;;;;;;5083712;28;20031;-61
2023/03/29 08:32:13;;;;;;;;;;;17.10;55.10;;;;;;5080377;28;19949;-58
2023/03/29 08:34:39;;;;;;;;;;;16.90;53.50;;;;;;5078502;28;19959;-59
2023/03/29 08:37:05;;;;;;;;;;;16.90;54.90;;;;;;5080659;28;19960;-60
2023/03/29 08:39:31;;;;;;;;;;;16.90;53.30;;;;;;5081583;28;20097;-60
2023/03/29 08:42:09;;;;;;;;;;;16.80;55.90;;;;;;5083284;28;19993;-58
2023/03/29 08:44:44;;;;;;;;;;;16.70;52.50;;;;;;5080249;28;19948;-60
2023/03/29 08:47:29;;;;;;;;;;;16.40;54.30;;;;;;5083118;28;19963;-61
2023/03/29 08:49:56;;;;;;;;;;;16.80;54.00;;;;;;5083000;28;19951;-63
2023/03/29 08:52:30;;;;;;;;;;;17.00;55.90;;;;;;5083069;28;19971;-60
2023/03/29 08:54:58;;;;;;;;;;;16.70;53.90;;;;;;5080992;28;20377;-59
2023/03/29 08:57:29;;;;;;;;;;;16.70;53.70;;;;;;5079452;28;20436;-62
2023/03/29 08:59:57;;;;;;;;;;;16.70;52.50;;;;;;5080434;28;21576;-59
2023/03/29 09:02:25;;;;;;;;;;;16.70;56.50;;;;;;5082135;28;20055;-59
2023/03/29 09:04:51;;;;;;;;;;;16.50;55.40;;;;;;5081617;28;20075;-59
2023/03/29 09:07:18;;;;;;;;;;;16.60;55.10;;;;;;5079136;28;19966;-57
2023/03/29 09:09:44;;;;;;;;;;;16.60;53.80;;;;;;5080808;28;20016;-61
2023/03/29 09:12:16;;;;;;;;;;;16.40;53.70;;;;;;5082668;28;19999;-59
2023/03/29 09:14:48;;;;;;;;;;;16.40;55.40;;;;;;5078373;28;19979;-60
2023/03/29 09:17:32;;;;;;;;;;;16.20;53.80;;;;;;5080514;28;20331;-59
2023/03/29 09:20:11;;;;;;;;;;;16.20;54.10;;;;;;5081516;28;20009;-60
2023/03/29 09:22:52;;;;;;;;;;;16.20;54.30;;;;;;5079495;28;20025;-59
2023/03/29 09:25:22;;;;;;;;;;;16.20;54.10;;;;;;5075773;28;19950;-59
2023/03/29 09:27:55;;;;;;;;;;;16.00;54.70;;;;;;5077521;28;20427;-60
2023/03/29 09:30:28;;;;;;;;;;;16.10;55.80;;;;;;5080444;28;19959;-60
2023/03/29 09:33:10;;;;;;;;;;;16.10;54.40;;;;;;5079512;28;19971;-63
2023/03/29 09:35:38;;;;;;;;;;;16.20;54.50;;;;;;5080094;28;19979;-62
2023/03/29 09:38:06;;;;;;;;;;;16.20;55.60;;;;;;5096688;28;19969;-61
2023/03/29 09:40:37;;;;;;;;;;;16.20;54.80;;;;;;5080268;28;20328;-60
2023/03/29 09:43:03;;;;;;;;;;;16.20;55.80;;;;;;5067304;28;20055;-60
2023/03/29 09:45:30;;;;;;;;;;;16.00;56.90;;;;;;5063213;28;20071;-61
2023/03/29 09:47:58;;;;;;;;;;;15.90;55.20;;;;;;5076948;28;19954;-61
2023/03/29 09:50:30;;;;;;;;;;;16.10;56.40;;;;;;5060626;28;20396;-59
2023/03/29 09:52:56;;;;;;;;;;;15.90;56.60;;;;;;5076092;28;20396;-58
2023/03/29 09:55:26;;;;;;;;;;;15.90;55.30;;;;;;5081407;28;19973;-61
2023/03/29 09:57:52;;;;;;;;;;;15.70;55.50;;;;;;5079890;28;19960;-61
2023/03/29 10:00:19;;;;;;;;;;;15.80;56.10;;;;;;5078739;28;20023;-60
2023/03/29 10:02:52;;;;;;;;;;;15.70;56.30;;;;;;5078825;28;19955;-62
2023/03/29 10:05:19;;;;;;;;;;;15.60;55.10;;;;;;5077786;28;20440;-59
2023/03/29 10:07:47;;;;;;;;;;;15.60;57.20;;;;;;5079987;28;19970;-60
2023/03/29 10:10:21;;;;;;;;;;;15.60;56.70;;;;;;5080657;28;19955;-60
2023/03/29 10:12:51;;;;;;;;;;;15.60;55.20;;;;;;5077433;28;20018;-60
2023/03/29 10:15:18;;;;;;;;;;;15.60;55.20;;;;;;5078706;28;19989;-58
2023/03/29 10:17:45;;;;;;;;;;;15.50;57.20;;;;;;5080475;28;20580;-57
2023/03/29 10:20:17;;;;;;;;;;;15.50;55.70;;;;;;5079610;28;19974;-60
2023/03/29 10:22:48;;;;;;;;;;;15.50;54.00;;;;;;5062940;28;19965;-61
2023/03/29 10:25:16;;;;;;;;;;;15.40;54.30;;;;;;5079446;28;19965;-59
2023/03/29 10:27:43;;;;;;;;;;;15.30;56.70;;;;;;5079235;28;19964;-57
2023/03/29 10:30:13;;;;;;;;;;;15.30;58.10;;;;;;5078979;28;20045;-59
2023/03/29 10:32:40;;;;;;;;;;;15.40;56.80;;;;;;5078597;28;19955;-58
2023/03/29 10:35:13;;;;;;;;;;;15.30;57.50;;;;;;5081401;28;20077;-63
2023/03/29 10:37:41;;;;;;;;;;;15.20;55.10;;;;;;5080711;28;20677;-61
2023/03/29 10:40:15;;;;;;;;;;;15.20;55.40;;;;;;5077220;28;19973;-60
2023/03/29 10:42:52;;;;;;;;;;;15.20;55.90;;;;;;5076800;28;20370;-61
2023/03/29 10:45:38;;;;;;;;;;;15.20;55.50;;;;;;5077244;28;20421;-59
2023/03/29 10:48:06;;;;;;;;;;;15.20;55.40;;;;;;5078047;28;20066;-60
2023/03/29 10:50:33;;;;;;;;;;;15.10;55.20;;;;;;5078245;28;19990;-59
2023/03/29 10:53:01;;;;;;;;;;;15.00;54.90;;;;;;5079246;28;19994;-61
2023/03/29 10:55:32;;;;;;;;;;;14.90;56.40;;;;;;5078427;28;19984;-59
2023/03/29 10:58:11;;;;;;;;;;;14.80;56.60;;;;;;5063184;28;20399;-58
2023/03/29 11:00:49;;;;;;;;;;;14.80;55.80;;;;;;5077921;28;19960;-59
2023/03/29 11:03:22;;;;;;;;;;;14.70;56.20;;;;;;5075218;28;20429;-60
2023/03/29 11:06:20;;;;;;;;;;;14.80;57.40;;;;;;5077088;28;20465;-59
2023/03/29 11:08:56;;;;;;;;;;;14.60;55.40;;;;;;5009819;28;19964;-60
2023/03/29 11:11:44;;;;;;;;;;;14.60;56.10;;;;;;5009020;28;20013;-61
2023/03/29 11:14:23;;;;;;;;;;;14.60;56.00;;;;;;4992109;28;20091;-59
2023/03/29 11:16:52;;;;;;;;;;;14.60;56.10;;;;;;5008266;28;20439;-57
2023/03/29 11:19:18;;;;;;;;;;;14.50;55.80;;;;;;5008553;28;19986;-60
2023/03/29 11:21:50;;;;;;;;;;;14.70;56.80;;;;;;5008845;28;19966;-59
2023/03/29 11:24:48;;;;;;;;;;;14.40;56.70;;;;;;5007905;28;20000;-59
2023/03/29 11:27:21;;;;;;;;;;;14.30;56.70;;;;;;4947920;28;20216;-62
2023/03/29 11:30:05;;;;;;;;;;;14.30;58.20;;;;;;4948109;28;19960;-60
2023/03/29 11:32:40;;;;;;;;;;;14.30;56.80;;;;;;4947264;28;20117;-58
2023/03/29 11:35:25;;;;;;;;;;;14.40;57.10;;;;;;4948244;28;19976;-58
2023/03/29 11:37:57;;;;;;;;;;;14.40;56.80;;;;;;4947869;28;19969;-60
2023/03/29 11:40:35;;;;;;;;;;;14.30;57.30;;;;;;4947463;28;20137;-57
2023/03/29 11:43:04;;;;;;;;;;;14.20;57.00;;;;;;4948608;28;20007;-60
2023/03/29 11:45:38;;;;;;;;;;;14.20;58.60;;;;;;4973628;28;19958;-60
2023/03/29 11:48:07;;;;;;;;;;;14.30;56.80;;;;;;4960995;28;20563;-62
2023/03/29 11:50:38;;;;;;;;;;;15.40;58.40;;;;;;4975344;28;19962;-59
2023/03/29 11:53:07;;;;;;;;;;;14.20;59.00;;;;;;4976386;28;19981;-58
2023/03/29 11:55:37;;;;;;;;;;;14.20;59.10;;;;;;4979145;28;20026;-59
2023/03/29 11:58:11;;;;;;;;;;;14.20;57.00;;;;;;4962422;28;20658;-59
2023/03/29 12:00:47;;;;;;;;;;;14.20;57.30;;;;;;4974856;28;20416;-62
2023/03/29 12:03:13;;;;;;;;;;;14.10;57.70;;;;;;5042111;28;19971;-57
2023/03/29 12:06:03;;;;;;;;;;;14.10;59.80;;;;;;5077549;28;19987;-57
2023/03/29 12:08:30;;;;;;;;;;;14.20;58.20;;;;;;5045179;28;19952;-58
2023/03/29 12:11:08;;;;;;;;;;;13.90;60.30;;;;;;5078530;28;20484;-56
2023/03/29 12:13:36;;;;;;;;;;;13.90;57.80;;;;;;5079799;28;19999;-58
2023/03/29 12:16:12;;;;;;;;;;;13.90;60.90;;;;;;5080523;28;19961;-59
2023/03/29 12:18:44;;;;;;;;;;;14.00;57.90;;;;;;5076137;28;19952;-60
2023/03/29 12:21:13;;;;;;;;;;;14.10;55.90;;;;;;5077348;28;20046;-59
2023/03/29 12:23:40;;;;;;;;;;;14.10;58.50;;;;;;5081228;28;19960;-59
2023/03/29 12:26:29;;;;;;;;;;;13.90;58.50;;;;;;5079391;28;19954;-60
2023/03/29 12:29:14;;;;;;;;;;;14.00;56.80;;;;;;5066981;28;19952;-58
2023/03/29 12:31:49;;;;;;;;;;;14.10;58.60;;;;;;5077551;28;19949;-59
2023/03/29 12:34:20;;;;;;;;;;;13.90;58.40;;;;;;5075584;28;19972;-58
2023/03/29 12:36:59;;;;;;;;;;;13.90;59.80;;;;;;5076172;28;20056;-58
2023/03/29 12:39:26;;;;;;;;;;;13.90;58.60;;;;;;5077234;28;19975;-55
2023/03/29 12:41:52;;;;;;;;;;;13.90;61.70;;;;;;5076617;28;19959;-57
2023/03/29 12:44:22;;;;;;;;;;;13.90;62.20;;;;;;5075706;28;20025;-60
2023/03/29 12:46:53;;;;;;;;;;;13.80;58.70;;;;;;5078398;28;19954;-58
2023/03/29 12:49:28;;;;;;;;;;;13.60;61.90;;;;;;5076217;28;20392;-58
2023/03/29 12:51:56;;;;;;;;;;;13.70;59.10;;;;;;5060133;28;20040;-60
2023/03/29 12:54:24;;;;;;;;;;;13.70;63.00;;;;;;5079498;28;19964;-60
2023/03/29 12:56:53;;;;;;;;;;;13.70;63.40;;;;;;5078905;28;20329;-60
2023/03/29 12:59:22;;;;;;;;;;;13.50;60.90;;;;;;5077866;28;19951;-52
2023/03/29 13:01:59;;;;;;;;;;;13.70;60.60;;;;;;5080542;28;20046;-63
2023/03/29 13:04:45;;;;;;;;;;;13.60;59.70;;;;;;5080426;28;19962;-58
2023/03/29 13:07:13;;;;;;;;;;;13.60;63.60;;;;;;5066656;28;19965;-58
2023/03/29 13:10:06;;;;;;;;;;;13.50;64.30;;;;;;5079793;28;20004;-60
2023/03/29 13:12:39;;;;;;;;;;;13.40;61.50;;;;;;5076441;28;19960;-57
2023/03/29 13:15:07;;;;;;;;;;;13.50;61.40;;;;;;5079507;28;20400;-59
2023/03/29 13:17:51;;;;;;;;;;;13.40;63.80;;;;;;5083036;28;19973;-61
2023/03/29 13:20:24;;;;;;;;;;;13.50;62.00;;;;;;5078488;28;20020;-58
2023/03/29 13:23:06;;;;;;;;;;;13.40;61.30;;;;;;5080110;28;19961;-58
2023/03/29 13:25:32;;;;;;;;;;;13.60;61.30;;;;;;5079758;28;20914;-58
2023/03/29 13:28:13;;;;;;;;;;;13.40;62.90;;;;;;5080076;28;19953;-58
2023/03/29 13:30:51;;;;;;;;;;;13.50;61.30;;;;;;5081140;28;20026;-57
2023/03/29 13:33:37;;;;;;;;;;;13.50;62.20;;;;;;5081581;28;20005;-59
2023/03/29 13:36:07;;;;;;;;;;;13.40;61.20;;;;;;5080920;28;19962;-57
2023/03/29 13:38:43;;;;;;;;;;;13.20;63.40;;;;;;5080645;28;19980;-57
2023/03/29 13:41:27;;;;;;;;;;;13.20;60.80;;;;;;5081118;28;19958;-60
2023/03/29 13:43:54;;;;;;;;;;;13.40;60.60;;;;;;5080201;28;20001;-61
2023/03/29 13:46:23;;;;;;;;;;;13.30;63.30;;;;;;5080061;28;19963;-59
2023/03/29 13:48:49;;;;;;;;;;;13.60;60.10;;;;;;5076958;28;19965;-60
2023/03/29 13:51:20;;;;;;;;;;;13.30;60.80;;;;;;5080714;28;19960;-58
2023/03/29 13:54:02;;;;;;;;;;;13.30;58.80;;;;;;5079332;28;19975;-60
2023/03/29 13:56:36;;;;;;;;;;;13.40;59.40;;;;;;5079768;28;20019;-60
2023/03/29 13:59:09;;;;;;;;;;;13.20;62.90;;;;;;5082558;28;19965;-60
2023/03/29 14:01:42;;;;;;;;;;;13.20;64.40;;;;;;5079342;28;19964;-58
2023/03/29 14:04:11;;;;;;;;;;;13.50;59.50;;;;;;5078158;28;20003;-59
2023/03/29 14:06:38;;;;;;;;;;;13.40;61.40;;;;;;5080915;28;19985;-59
2023/03/29 14:09:07;;;;;;;;;;;13.60;61.00;;;;;;5079697;28;20374;-60
2023/03/29 14:11:33;;;;;;;;;;;13.40;62.00;;;;;;5078243;28;19964;-59
2023/03/29 14:14:01;;;;;;;;;;;13.70;60.60;;;;;;5077471;28;20027;-60
2023/03/29 14:16:32;;;;;;;;;;;13.80;60.00;;;;;;5079752;28;20041;-60
2023/03/29 14:18:58;;;;;;;;;;;13.90;60.60;;;;;;5080174;28;19969;-59
2023/03/29 14:21:25;;;;;;;;;;;14.20;60.40;;;;;;5079818;28;19963;-57
2023/03/29 14:23:56;;;;;;;;;;;14.10;59.80;;;;;;5080195;28;20060;-60
2023/03/29 14:26:23;;;;;;;;;;;14.10;57.10;;;;;;5079912;28;20004;-58
2023/03/29 14:28:51;;;;;;;;;;;14.20;59.20;;;;;;5076404;28;20428;-60
2023/03/29 14:31:24;;;;;;;;;;;14.40;58.80;;;;;;5077491;28;20017;-60